createdAt,value
2019-04-03T00:01:27.576Z,47.21
2019-04-03T00:04:00.211Z,47.60
2019-04-03T00:06:33.723Z,47.55
2019-04-03T00:09:09.020Z,47.86
2019-04-03T00:11:43.116Z,47.82
2019-04-03T00:14:15.295Z,48.13
2019-04-03T00:16:47.856Z,48.44
2019-04-03T00:19:20.374Z,48.26
2019-04-03T00:21:52.935Z,48.68
2019-04-03T00:24:25.554Z,48.65
2019-04-03T00:26:58.700Z,48.73
2019-04-03T00:29:31.314Z,48.99
2019-04-03T00:32:03.802Z,48.90
2019-04-03T00:34:36.300Z,48.98
2019-04-03T00:37:08.880Z,49.22
2019-04-03T00:39:41.520Z,49.23
2019-04-03T00:42:14.055Z,49.41
2019-04-03T00:44:46.286Z,49.68
2019-04-03T00:47:19.731Z,49.22
2019-04-03T00:49:52.341Z,49.58
2019-04-03T00:52:25.876Z,49.63
2019-04-03T00:54:59.375Z,49.69
2019-04-03T00:57:32.336Z,49.62
2019-04-03T01:00:10.630Z,49.48
2019-04-03T01:02:43.965Z,49.67
2019-04-03T01:05:16.493Z,50.03
2019-04-03T01:07:49.037Z,50.17
2019-04-03T01:10:21.370Z,50.31
2019-04-03T01:12:53.872Z,50.34
2019-04-03T01:15:26.996Z,50.45
2019-04-03T01:17:59.564Z,50.77
2019-04-03T01:20:32.114Z,50.86
2019-04-03T01:23:06.909Z,51.18
2019-04-03T01:25:39.640Z,51.03
2019-04-03T01:28:12.333Z,51.20
2019-04-03T01:30:48.112Z,51.32
2019-04-03T01:33:20.548Z,51.47
2019-04-03T01:35:53.493Z,51.22
2019-04-03T01:38:26.260Z,51.64
2019-04-03T01:40:58.877Z,51.72
2019-04-03T01:43:31.348Z,51.88
2019-04-03T01:46:03.982Z,51.62
2019-04-03T01:48:36.434Z,52.07
2019-04-03T01:51:08.610Z,52.15
2019-04-03T01:53:41.324Z,52.35
2019-04-03T01:56:13.933Z,52.09
2019-04-03T01:58:46.378Z,52.36
2019-04-03T02:01:19.124Z,52.35
2019-04-03T02:03:51.707Z,52.56
2019-04-03T02:06:23.878Z,52.64
2019-04-03T02:08:56.437Z,52.87
2019-04-03T02:11:29.083Z,52.97
2019-04-03T02:14:01.647Z,53.15
2019-04-03T02:16:35.540Z,53.23
2019-04-03T02:19:07.748Z,53.30
2019-04-03T02:21:40.268Z,53.69
2019-04-03T02:24:12.709Z,53.60
2019-04-03T02:26:45.232Z,53.53
2019-04-03T02:29:17.671Z,53.71
2019-04-03T02:31:52.924Z,53.89
2019-04-03T02:34:24.414Z,53.88
2019-04-03T02:36:56.971Z,53.98
2019-04-03T02:39:29.552Z,54.07
2019-04-03T02:42:02.235Z,54.26
2019-04-03T02:44:34.831Z,54.28
2019-04-03T02:47:07.373Z,54.44
2019-04-03T02:49:42.710Z,54.33
2019-04-03T02:52:14.161Z,54.55
2019-04-03T02:54:48.172Z,54.74
2019-04-03T02:57:20.834Z,54.99
2019-04-03T02:59:57.691Z,54.95
2019-04-03T03:02:27.719Z,55.13
2019-04-03T03:05:00.241Z,55.16
2019-04-03T03:07:36.334Z,55.30
2019-04-03T03:10:09.649Z,55.31
2019-04-03T03:12:43.461Z,55.84
2019-04-03T03:15:16.616Z,55.69
2019-04-03T03:17:50.217Z,55.79
2019-04-03T03:20:25.462Z,55.78
2019-04-03T03:22:59.510Z,55.49
2019-04-03T03:25:33.679Z,55.99
2019-04-03T03:28:06.897Z,55.26
2019-04-03T03:30:46.768Z,55.62
2019-04-03T03:33:32.414Z,55.84
2019-04-03T03:35:50.820Z,55.63
2019-04-03T03:38:27.281Z,55.73
2019-04-03T03:40:59.215Z,55.37
2019-04-03T03:43:37.049Z,55.45
2019-04-03T03:46:06.853Z,55.61
2019-04-03T03:48:42.074Z,55.73
2019-04-03T03:51:15.887Z,55.74
2019-04-03T03:53:50.423Z,56.11
2019-04-03T03:56:23.504Z,55.26
2019-04-03T03:58:55.821Z,55.74
2019-04-03T04:01:31.008Z,55.33
2019-04-03T04:04:03.214Z,55.42
2019-04-03T04:06:36.641Z,56.12
2019-04-03T04:09:09.583Z,55.56
2019-04-03T04:11:42.288Z,56.38
2019-04-03T04:14:16.238Z,55.63
2019-04-03T04:16:49.194Z,55.88
2019-04-03T04:19:22.979Z,55.46
2019-04-03T04:21:56.184Z,55.52
2019-04-03T04:24:28.853Z,56.32
2019-04-03T04:27:03.179Z,55.90
2019-04-03T04:29:35.949Z,56.35
2019-04-03T04:32:08.461Z,55.90
2019-04-03T04:34:41.035Z,56.60
2019-04-03T04:37:13.643Z,55.88
2019-04-03T04:39:46.095Z,56.34
2019-04-03T04:42:18.988Z,56.27
2019-04-03T04:44:51.323Z,56.05
2019-04-03T04:47:23.853Z,56.41
2019-04-03T04:49:56.406Z,55.79
2019-04-03T04:52:30.051Z,56.18
2019-04-03T04:55:02.961Z,56.19
2019-04-03T04:57:35.598Z,56.20
2019-04-03T05:00:09.262Z,56.67
2019-04-03T05:02:41.509Z,56.56
2019-04-03T05:05:14.063Z,56.77
2019-04-03T05:07:46.674Z,56.34
2019-04-03T05:10:19.248Z,56.79
2019-04-03T05:12:51.721Z,56.56
2019-04-03T05:15:24.115Z,56.62
2019-04-03T05:17:57.699Z,56.91
2019-04-03T05:20:31.282Z,56.56
2019-04-03T05:23:03.883Z,57.04
2019-04-03T05:25:37.448Z,57.16
2019-04-03T05:28:09.938Z,57.06
2019-04-03T05:30:42.422Z,57.52
2019-04-03T05:33:14.681Z,57.32
2019-04-03T05:35:47.243Z,56.98
2019-04-03T05:38:21.703Z,56.98
2019-04-03T05:40:54.698Z,57.47
2019-04-03T05:43:30.387Z,57.21
2019-04-03T05:46:02.309Z,56.82
2019-04-03T05:48:35.024Z,56.21
2019-04-03T05:51:07.480Z,55.88
2019-04-03T05:53:40.180Z,55.71
2019-04-03T05:56:12.753Z,55.21
2019-04-03T05:58:55.586Z,55.20
2019-04-03T06:01:20.371Z,54.01
2019-04-03T06:03:53.245Z,54.29
2019-04-03T06:06:26.060Z,53.68
2019-04-03T06:08:58.646Z,53.45
2019-04-03T06:11:31.064Z,53.14
2019-04-03T06:14:03.317Z,53.71
2019-04-03T06:16:35.877Z,53.40
2019-04-03T06:19:08.209Z,52.45
2019-04-03T06:21:40.868Z,52.61
2019-04-03T06:24:17.783Z,52.06
2019-04-03T06:27:01.477Z,51.96
2019-04-03T06:32:47.012Z,50.79
2019-04-03T06:35:20.112Z,50.88
2019-04-03T06:37:54.393Z,50.95
2019-04-03T06:40:28.327Z,50.30
2019-04-03T06:43:07.785Z,50.26
2019-04-03T06:45:56.878Z,50.46
2019-04-03T06:48:25.500Z,49.48
2019-04-03T06:50:58.223Z,48.61
2019-04-03T06:53:36.256Z,49.28
2019-04-03T06:56:30.590Z,49.44
2019-04-03T06:59:18.357Z,48.27
2019-04-03T07:01:54.869Z,48.19
2019-04-03T07:04:34.005Z,46.33
2019-04-03T07:07:13.579Z,46.41
2019-04-03T07:09:58.816Z,47.93
2019-04-03T07:12:38.834Z,46.44
2019-04-03T07:15:59.578Z,45.61
2019-04-03T07:18:24.090Z,45.79
2019-04-03T07:21:20.713Z,46.58
2019-04-03T07:24:14.422Z,46.43
2019-04-03T07:26:53.173Z,44.77
2019-04-03T07:29:31.801Z,44.05
2019-04-03T07:32:28.588Z,43.70
2019-04-03T07:42:24.576Z,43.65
2019-04-03T07:44:57.970Z,43.12
2019-04-03T07:50:36.979Z,43.00
2019-04-03T10:54:09.221Z,30.35
2019-04-03T11:25:25.141Z,30.88
2019-04-03T12:40:32.756Z,25.98
2019-04-03T12:43:51.311Z,27.20
2019-04-03T12:46:47.953Z,26.23
2019-04-03T12:49:33.763Z,26.05
2019-04-03T12:52:43.233Z,25.45
2019-04-03T12:59:30.301Z,23.47
2019-04-03T13:05:24.265Z,24.00
2019-04-03T13:08:24.074Z,22.76
2019-04-03T13:11:06.189Z,23.31
2019-04-03T13:13:47.372Z,24.24
2019-04-03T13:16:41.790Z,22.38
2019-04-03T13:43:53.177Z,20.29
2019-04-03T13:47:09.260Z,20.46
2019-04-03T13:56:53.836Z,20.34
2019-04-03T14:07:02.519Z,20.40
2019-04-03T14:17:05.467Z,20.31
2019-04-03T14:20:36.071Z,20.17
2019-04-03T14:23:10.350Z,21.21
2019-04-03T14:29:40.582Z,20.72
2019-04-03T14:32:55.278Z,20.85
2019-04-03T14:36:05.172Z,20.92
2019-04-03T14:39:02.396Z,21.46
2019-04-03T14:45:21.062Z,21.56
2019-04-03T14:48:17.280Z,21.06
2019-04-03T14:54:19.845Z,20.36
2019-04-03T14:57:11.116Z,20.75
2019-04-03T14:59:48.824Z,20.84
2019-04-03T15:05:48.033Z,21.35
2019-04-03T15:11:46.008Z,21.97
2019-04-03T15:14:29.482Z,21.81
2019-04-03T15:17:11.588Z,21.27
2019-04-03T15:23:26.059Z,21.54
2019-04-03T15:26:14.235Z,21.71
2019-04-03T15:29:05.432Z,22.34
2019-04-03T15:34:55.339Z,22.76
2019-04-03T15:37:53.649Z,22.67
2019-04-03T15:40:43.718Z,23.11
2019-04-03T15:43:21.610Z,23.42
2019-04-03T15:46:12.378Z,23.24
2019-04-03T15:48:53.457Z,22.55
2019-04-03T15:51:41.966Z,22.88
2019-04-03T15:54:25.852Z,23.21
2019-04-03T16:06:49.856Z,23.87
2019-04-03T16:09:42.574Z,24.15
2019-04-03T16:19:32.597Z,25.08
2019-04-03T16:39:07.054Z,28.13
2019-04-03T16:41:54.813Z,27.82
2019-04-03T16:44:48.096Z,28.17
2019-04-03T16:47:51.756Z,29.48
2019-04-03T16:57:47.503Z,31.00
